sensor_id;sensor_type;location;lat;lon;timestamp;P1;durP1;ratioP1;P2;durP2;ratioP2
78365;SDS011;67641;59.864;30.464;2023-06-22T10:59:46;4.30;;;2.20;;
78365;SDS011;67641;59.864;30.464;2023-06-22T11:02:14;5.15;;;1.92;;
78365;SDS011;67641;59.864;30.464;2023-06-22T11:04:41;4.05;;;2.75;;
78365;SDS011;67641;59.864;30.464;2023-06-22T11:07:08;4.38;;;2.38;;
78365;SDS011;67641;59.864;30.464;2023-06-22T11:12:38;3.80;;;2.03;;
78365;SDS011;67641;59.864;30.464;2023-06-22T11:15:07;3.97;;;1.92;;
78365;SDS011;67641;59.864;30.464;2023-06-22T11:17:35;5.32;;;2.00;;
78365;SDS011;67641;59.864;30.464;2023-06-22T11:20:05;5.05;;;2.20;;
78365;SDS011;67641;59.864;30.464;2023-06-22T11:22:39;5.57;;;1.95;;
78365;SDS011;67641;59.864;30.464;2023-06-22T11:25:07;3.80;;;2.00;;
78365;SDS011;67641;59.864;30.464;2023-06-22T11:27:35;3.45;;;2.10;;
78365;SDS011;67641;59.864;30.464;2023-06-22T11:30:02;4.50;;;2.28;;
78365;SDS011;67641;59.864;30.464;2023-06-22T11:32:48;5.75;;;2.28;;
78365;SDS011;67641;59.864;30.464;2023-06-22T11:35:15;4.00;;;2.05;;
78365;SDS011;67641;59.864;30.464;2023-06-22T11:37:45;5.57;;;2.28;;
78365;SDS011;67641;59.864;30.464;2023-06-22T11:40:13;3.30;;;2.03;;
78365;SDS011;67641;59.864;30.464;2023-06-22T11:42:40;5.05;;;2.28;;
78365;SDS011;67641;59.864;30.464;2023-06-22T11:45:07;3.80;;;2.20;;
78365;SDS011;67641;59.864;30.464;2023-06-22T11:47:38;3.78;;;2.40;;
78365;SDS011;67641;59.864;30.464;2023-06-22T11:50:06;4.22;;;2.03;;
78365;SDS011;67641;59.864;30.464;2023-06-22T11:54:46;4.25;;;2.10;;
78365;SDS011;67641;59.864;30.464;2023-06-22T11:57:13;3.42;;;1.73;;
78365;SDS011;67641;59.864;30.464;2023-06-22T11:59:40;6.95;;;2.63;;
78365;SDS011;67641;59.864;30.464;2023-06-22T12:02:09;4.45;;;2.22;;
78365;SDS011;67641;59.864;30.464;2023-06-22T12:04:40;3.72;;;2.30;;
78365;SDS011;67641;59.864;30.464;2023-06-22T12:07:12;4.95;;;2.10;;
78365;SDS011;67641;59.864;30.464;2023-06-22T12:09:40;4.78;;;2.00;;
78365;SDS011;67641;59.864;30.464;2023-06-22T12:14:48;5.72;;;2.22;;
78365;SDS011;67641;59.864;30.464;2023-06-22T12:17:15;4.15;;;2.00;;
78365;SDS011;67641;59.864;30.464;2023-06-22T12:19:42;5.22;;;2.28;;
78365;SDS011;67641;59.864;30.464;2023-06-22T12:22:09;7.63;;;2.63;;
78365;SDS011;67641;59.864;30.464;2023-06-22T12:24:36;4.18;;;2.10;;
78365;SDS011;67641;59.864;30.464;2023-06-22T12:27:04;5.55;;;2.50;;
78365;SDS011;67641;59.864;30.464;2023-06-22T12:29:31;4.93;;;2.55;;
78365;SDS011;67641;59.864;30.464;2023-06-22T12:32:00;4.25;;;2.20;;
78365;SDS011;67641;59.864;30.464;2023-06-22T12:34:45;6.35;;;2.60;;
78365;SDS011;67641;59.864;30.464;2023-06-22T12:37:13;4.68;;;2.60;;
78365;SDS011;67641;59.864;30.464;2023-06-22T12:39:40;7.35;;;2.58;;
78365;SDS011;67641;59.864;30.464;2023-06-22T12:42:08;3.85;;;2.42;;
78365;SDS011;67641;59.864;30.464;2023-06-22T12:44:45;4.68;;;2.70;;
78365;SDS011;67641;59.864;30.464;2023-06-22T12:47:12;2.70;;;1.98;;
78365;SDS011;67641;59.864;30.464;2023-06-22T12:49:39;4.85;;;2.80;;
78365;SDS011;67641;59.864;30.464;2023-06-22T12:54:55;5.13;;;2.00;;
78365;SDS011;67641;59.864;30.464;2023-06-22T12:57:22;4.78;;;2.33;;
78365;SDS011;67641;59.864;30.464;2023-06-22T12:59:49;4.30;;;2.00;;
78365;SDS011;67641;59.864;30.464;2023-06-22T13:02:17;4.60;;;2.55;;
78365;SDS011;67641;59.864;30.464;2023-06-22T13:04:44;4.18;;;2.20;;
78365;SDS011;67641;59.864;30.464;2023-06-22T13:07:10;4.47;;;2.13;;
78365;SDS011;67641;59.864;30.464;2023-06-22T13:09:40;3.78;;;2.28;;
78365;SDS011;67641;59.864;30.464;2023-06-22T13:12:08;4.95;;;2.30;;
78365;SDS011;67641;59.864;30.464;2023-06-22T13:16:36;3.28;;;1.98;;
78365;SDS011;67641;59.864;30.464;2023-06-22T13:19:03;5.55;;;2.08;;
78365;SDS011;67641;59.864;30.464;2023-06-22T13:21:30;4.88;;;1.70;;
78365;SDS011;67641;59.864;30.464;2023-06-22T13:23:57;3.05;;;1.75;;
78365;SDS011;67641;59.864;30.464;2023-06-22T13:26:24;4.18;;;2.03;;
78365;SDS011;67641;59.864;30.464;2023-06-22T13:28:52;4.93;;;2.05;;
78365;SDS011;67641;59.864;30.464;2023-06-22T13:31:20;5.10;;;1.70;;
78365;SDS011;67641;59.864;30.464;2023-06-22T13:36:18;4.43;;;1.80;;
78365;SDS011;67641;59.864;30.464;2023-06-22T13:38:45;3.20;;;2.15;;
78365;SDS011;67641;59.864;30.464;2023-06-22T13:41:13;6.07;;;2.10;;
78365;SDS011;67641;59.864;30.464;2023-06-22T13:43:40;2.90;;;2.00;;
78365;SDS011;67641;59.864;30.464;2023-06-22T13:46:06;3.40;;;1.85;;
78365;SDS011;67641;59.864;30.464;2023-06-22T13:48:35;3.20;;;2.13;;
78365;SDS011;67641;59.864;30.464;2023-06-22T13:51:02;10.85;;;2.38;;
78365;SDS011;67641;59.864;30.464;2023-06-22T13:53:29;3.47;;;2.15;;
78365;SDS011;67641;59.864;30.464;2023-06-22T13:57:45;3.85;;;1.77;;
78365;SDS011;67641;59.864;30.464;2023-06-22T14:00:12;4.00;;;1.80;;
78365;SDS011;67641;59.864;30.464;2023-06-22T14:02:40;3.65;;;2.30;;
78365;SDS011;67641;59.864;30.464;2023-06-22T14:05:08;3.85;;;1.50;;
78365;SDS011;67641;59.864;30.464;2023-06-22T14:07:37;3.88;;;1.88;;
78365;SDS011;67641;59.864;30.464;2023-06-22T14:10:04;3.88;;;2.00;;
78365;SDS011;67641;59.864;30.464;2023-06-22T14:12:32;7.18;;;2.10;;
78365;SDS011;67641;59.864;30.464;2023-06-22T14:14:59;4.00;;;2.00;;
78365;SDS011;67641;59.864;30.464;2023-06-22T14:19:12;3.05;;;1.90;;
78365;SDS011;67641;59.864;30.464;2023-06-22T14:21:39;4.88;;;1.88;;
78365;SDS011;67641;59.864;30.464;2023-06-22T14:24:06;4.55;;;2.20;;
78365;SDS011;67641;59.864;30.464;2023-06-22T14:26:33;4.07;;;2.03;;
78365;SDS011;67641;59.864;30.464;2023-06-22T14:29:01;4.85;;;1.90;;
78365;SDS011;67641;59.864;30.464;2023-06-22T14:31:28;5.35;;;2.35;;
78365;SDS011;67641;59.864;30.464;2023-06-22T14:33:55;3.67;;;2.30;;
78365;SDS011;67641;59.864;30.464;2023-06-22T14:36:22;4.35;;;2.17;;
78365;SDS011;67641;59.864;30.464;2023-06-22T14:41:30;3.45;;;2.15;;
78365;SDS011;67641;59.864;30.464;2023-06-22T14:43:58;7.10;;;2.40;;
78365;SDS011;67641;59.864;30.464;2023-06-22T14:46:26;3.55;;;2.50;;
78365;SDS011;67641;59.864;30.464;2023-06-22T14:48:53;3.95;;;2.30;;
78365;SDS011;67641;59.864;30.464;2023-06-22T14:51:20;5.05;;;2.28;;
78365;SDS011;67641;59.864;30.464;2023-06-22T14:53:47;6.38;;;2.85;;
78365;SDS011;67641;59.864;30.464;2023-06-22T14:56:14;4.60;;;2.35;;
78365;SDS011;67641;59.864;30.464;2023-06-22T14:58:41;5.05;;;2.47;;
78365;SDS011;67641;59.864;30.464;2023-06-22T15:02:59;5.72;;;2.50;;
78365;SDS011;67641;59.864;30.464;2023-06-22T15:05:26;5.80;;;2.80;;
78365;SDS011;67641;59.864;30.464;2023-06-22T15:07:53;4.10;;;2.50;;
78365;SDS011;67641;59.864;30.464;2023-06-22T15:10:20;4.47;;;2.35;;
78365;SDS011;67641;59.864;30.464;2023-06-22T15:12:47;5.22;;;2.40;;
78365;SDS011;67641;59.864;30.464;2023-06-22T15:15:14;5.18;;;2.28;;
78365;SDS011;67641;59.864;30.464;2023-06-22T15:17:41;8.18;;;2.47;;
78365;SDS011;67641;59.864;30.464;2023-06-22T15:20:11;6.90;;;2.53;;
78365;SDS011;67641;59.864;30.464;2023-06-22T15:23:09;5.18;;;2.90;;
78365;SDS011;67641;59.864;30.464;2023-06-22T15:25:37;4.97;;;2.95;;
78365;SDS011;67641;59.864;30.464;2023-06-22T15:28:09;5.75;;;2.65;;
78365;SDS011;67641;59.864;30.464;2023-06-22T15:30:38;3.70;;;2.75;;
78365;SDS011;67641;59.864;30.464;2023-06-22T15:33:06;5.93;;;3.00;;
78365;SDS011;67641;59.864;30.464;2023-06-22T15:35:33;5.90;;;3.28;;
78365;SDS011;67641;59.864;30.464;2023-06-22T15:38:00;6.07;;;3.15;;
78365;SDS011;67641;59.864;30.464;2023-06-22T15:40:28;6.93;;;2.83;;
78365;SDS011;67641;59.864;30.464;2023-06-22T15:44:52;4.88;;;2.70;;
78365;SDS011;67641;59.864;30.464;2023-06-22T15:47:19;6.03;;;3.00;;
78365;SDS011;67641;59.864;30.464;2023-06-22T15:49:48;5.47;;;2.70;;
78365;SDS011;67641;59.864;30.464;2023-06-22T15:52:17;4.45;;;2.95;;
78365;SDS011;67641;59.864;30.464;2023-06-22T15:54:45;5.72;;;2.42;;
78365;SDS011;67641;59.864;30.464;2023-06-22T15:57:12;5.90;;;2.70;;
78365;SDS011;67641;59.864;30.464;2023-06-22T15:59:43;5.70;;;2.95;;
78365;SDS011;67641;59.864;30.464;2023-06-22T16:02:11;5.50;;;2.47;;
78365;SDS011;67641;59.864;30.464;2023-06-22T16:06:35;5.97;;;2.97;;
78365;SDS011;67641;59.864;30.464;2023-06-22T16:09:02;4.45;;;2.97;;
78365;SDS011;67641;59.864;30.464;2023-06-22T16:11:31;6.80;;;2.95;;
78365;SDS011;67641;59.864;30.464;2023-06-22T16:13:58;7.63;;;2.92;;
78365;SDS011;67641;59.864;30.464;2023-06-22T16:16:25;5.75;;;2.63;;
78365;SDS011;67641;59.864;30.464;2023-06-22T16:18:52;6.85;;;3.13;;
78365;SDS011;67641;59.864;30.464;2023-06-22T16:21:19;4.88;;;2.97;;
78365;SDS011;67641;59.864;30.464;2023-06-22T16:23:46;7.45;;;3.35;;
78365;SDS011;67641;59.864;30.464;2023-06-22T16:27:57;4.35;;;2.83;;
78365;SDS011;67641;59.864;30.464;2023-06-22T16:30:24;5.75;;;3.42;;
78365;SDS011;67641;59.864;30.464;2023-06-22T16:32:51;6.03;;;3.00;;
78365;SDS011;67641;59.864;30.464;2023-06-22T16:35:20;4.32;;;2.60;;
78365;SDS011;67641;59.864;30.464;2023-06-22T16:37:47;4.93;;;2.97;;
78365;SDS011;67641;59.864;30.464;2023-06-22T16:40:14;4.65;;;2.55;;
78365;SDS011;67641;59.864;30.464;2023-06-22T16:42:46;4.47;;;2.60;;
78365;SDS011;67641;59.864;30.464;2023-06-22T16:45:14;4.85;;;2.95;;
78365;SDS011;67641;59.864;30.464;2023-06-22T16:50:07;7.25;;;2.28;;
78365;SDS011;67641;59.864;30.464;2023-06-22T16:52:35;4.03;;;2.65;;
78365;SDS011;67641;59.864;30.464;2023-06-22T16:55:06;4.93;;;2.70;;
78365;SDS011;67641;59.864;30.464;2023-06-22T16:57:34;5.60;;;2.50;;
78365;SDS011;67641;59.864;30.464;2023-06-22T17:00:01;5.28;;;2.45;;
78365;SDS011;67641;59.864;30.464;2023-06-22T17:02:34;3.80;;;2.50;;
78365;SDS011;67641;59.864;30.464;2023-06-22T17:05:08;5.25;;;2.75;;
78365;SDS011;67641;59.864;30.464;2023-06-22T17:10:35;4.57;;;2.50;;
78365;SDS011;67641;59.864;30.464;2023-06-22T17:13:02;7.70;;;2.47;;
78365;SDS011;67641;59.864;30.464;2023-06-22T17:15:31;4.50;;;2.63;;
78365;SDS011;67641;59.864;30.464;2023-06-22T17:18:04;5.07;;;2.60;;
78365;SDS011;67641;59.864;30.464;2023-06-22T17:20:32;4.43;;;2.35;;
78365;SDS011;67641;59.864;30.464;2023-06-22T17:22:59;4.50;;;2.75;;
78365;SDS011;67641;59.864;30.464;2023-06-22T17:25:29;4.78;;;2.40;;
78365;SDS011;67641;59.864;30.464;2023-06-22T17:28:00;4.90;;;2.92;;
78365;SDS011;67641;59.864;30.464;2023-06-22T17:52:19;6.72;;;2.85;;
78365;SDS011;67641;59.864;30.464;2023-06-22T17:54:50;5.78;;;2.38;;
78365;SDS011;67641;59.864;30.464;2023-06-22T17:57:17;7.05;;;2.75;;
78365;SDS011;67641;59.864;30.464;2023-06-22T17:59:48;7.00;;;3.05;;
78365;SDS011;67641;59.864;30.464;2023-06-22T18:02:20;4.13;;;2.38;;
78365;SDS011;67641;59.864;30.464;2023-06-22T18:04:57;4.35;;;2.63;;
78365;SDS011;67641;59.864;30.464;2023-06-22T18:07:24;4.68;;;2.20;;
78365;SDS011;67641;59.864;30.464;2023-06-22T18:12:28;5.53;;;2.60;;
78365;SDS011;67641;59.864;30.464;2023-06-22T18:14:56;5.50;;;3.25;;
78365;SDS011;67641;59.864;30.464;2023-06-22T18:17:23;4.78;;;2.83;;
78365;SDS011;67641;59.864;30.464;2023-06-22T18:19:52;4.85;;;2.72;;
78365;SDS011;67641;59.864;30.464;2023-06-22T18:22:21;5.25;;;2.67;;
78365;SDS011;67641;59.864;30.464;2023-06-22T18:24:49;5.90;;;2.90;;
78365;SDS011;67641;59.864;30.464;2023-06-22T18:27:20;4.40;;;3.20;;
78365;SDS011;67641;59.864;30.464;2023-06-22T18:32:24;3.83;;;2.42;;
78365;SDS011;67641;59.864;30.464;2023-06-22T18:34:51;4.13;;;2.50;;
78365;SDS011;67641;59.864;30.464;2023-06-22T18:37:19;5.80;;;2.60;;
78365;SDS011;67641;59.864;30.464;2023-06-22T18:39:49;4.72;;;2.53;;
78365;SDS011;67641;59.864;30.464;2023-06-22T18:42:20;4.53;;;2.80;;
78365;SDS011;67641;59.864;30.464;2023-06-22T18:44:51;6.80;;;2.65;;
78365;SDS011;67641;59.864;30.464;2023-06-22T18:47:27;6.00;;;2.70;;
78365;SDS011;67641;59.864;30.464;2023-06-22T18:53:01;4.97;;;2.80;;
78365;SDS011;67641;59.864;30.464;2023-06-22T18:55:31;5.82;;;2.75;;
78365;SDS011;67641;59.864;30.464;2023-06-22T18:58:22;5.75;;;2.55;;
78365;SDS011;67641;59.864;30.464;2023-06-22T19:00:53;4.35;;;2.60;;
78365;SDS011;67641;59.864;30.464;2023-06-22T19:03:52;4.20;;;2.22;;
78365;SDS011;67641;59.864;30.464;2023-06-22T19:10:20;5.10;;;2.80;;
78365;SDS011;67641;59.864;30.464;2023-06-22T19:13:18;5.18;;;2.78;;
78365;SDS011;67641;59.864;30.464;2023-06-22T19:15:54;4.63;;;3.00;;
78365;SDS011;67641;59.864;30.464;2023-06-22T19:19:38;7.63;;;2.97;;
78365;SDS011;67641;59.864;30.464;2023-06-22T19:22:06;3.65;;;2.30;;
78365;SDS011;67641;59.864;30.464;2023-06-22T19:24:48;4.32;;;2.95;;
78365;SDS011;67641;59.864;30.464;2023-06-22T19:27:19;4.53;;;2.20;;
78365;SDS011;67641;59.864;30.464;2023-06-22T19:29:52;6.00;;;2.75;;
78365;SDS011;67641;59.864;30.464;2023-06-22T19:35:04;7.13;;;2.30;;
78365;SDS011;67641;59.864;30.464;2023-06-22T19:37:37;5.18;;;2.40;;
78365;SDS011;67641;59.864;30.464;2023-06-22T19:40:11;6.00;;;2.40;;
78365;SDS011;67641;59.864;30.464;2023-06-22T19:42:42;4.90;;;2.25;;
78365;SDS011;67641;59.864;30.464;2023-06-22T19:45:14;7.53;;;2.35;;
78365;SDS011;67641;59.864;30.464;2023-06-22T19:47:44;4.60;;;2.20;;
78365;SDS011;67641;59.864;30.464;2023-06-22T19:50:12;5.88;;;2.33;;
78365;SDS011;67641;59.864;30.464;2023-06-22T19:52:41;4.72;;;2.50;;
78365;SDS011;67641;59.864;30.464;2023-06-22T19:56:47;5.60;;;2.00;;
78365;SDS011;67641;59.864;30.464;2023-06-22T20:01:45;3.97;;;2.22;;
78365;SDS011;67641;59.864;30.464;2023-06-22T20:04:12;4.07;;;2.40;;
78365;SDS011;67641;59.864;30.464;2023-06-22T20:06:40;6.25;;;2.53;;
78365;SDS011;67641;59.864;30.464;2023-06-22T20:09:27;5.07;;;2.33;;
78365;SDS011;67641;59.864;30.464;2023-06-22T20:11:57;4.85;;;2.30;;
78365;SDS011;67641;59.864;30.464;2023-06-22T20:14:30;3.75;;;2.20;;
78365;SDS011;67641;59.864;30.464;2023-06-22T20:18:45;4.90;;;2.22;;
78365;SDS011;67641;59.864;30.464;2023-06-22T20:21:13;6.35;;;2.22;;
78365;SDS011;67641;59.864;30.464;2023-06-22T20:23:41;5.38;;;2.17;;
78365;SDS011;67641;59.864;30.464;2023-06-22T20:26:09;4.18;;;2.15;;
78365;SDS011;67641;59.864;30.464;2023-06-22T20:28:37;5.70;;;2.40;;
78365;SDS011;67641;59.864;30.464;2023-06-22T20:31:06;4.00;;;2.35;;
78365;SDS011;67641;59.864;30.464;2023-06-22T20:33:37;3.67;;;2.20;;
78365;SDS011;67641;59.864;30.464;2023-06-22T20:36:07;5.28;;;2.42;;
78365;SDS011;67641;59.864;30.464;2023-06-22T20:40:12;4.32;;;2.22;;
78365;SDS011;67641;59.864;30.464;2023-06-22T20:42:40;3.63;;;2.00;;
78365;SDS011;67641;59.864;30.464;2023-06-22T20:45:08;6.05;;;2.40;;
78365;SDS011;67641;59.864;30.464;2023-06-22T20:47:36;4.55;;;2.03;;
78365;SDS011;67641;59.864;30.464;2023-06-22T20:50:06;6.53;;;2.40;;
78365;SDS011;67641;59.864;30.464;2023-06-22T20:52:33;4.13;;;2.20;;
78365;SDS011;67641;59.864;30.464;2023-06-22T20:55:06;4.28;;;1.95;;
78365;SDS011;67641;59.864;30.464;2023-06-22T21:00:24;4.30;;;2.40;;
78365;SDS011;67641;59.864;30.464;2023-06-22T21:02:51;6.25;;;2.10;;
78365;SDS011;67641;59.864;30.464;2023-06-22T21:05:19;4.03;;;2.30;;
78365;SDS011;67641;59.864;30.464;2023-06-22T21:07:49;3.17;;;1.98;;
78365;SDS011;67641;59.864;30.464;2023-06-22T21:10:16;5.47;;;2.50;;
78365;SDS011;67641;59.864;30.464;2023-06-22T21:15:12;3.90;;;2.20;;
78365;SDS011;67641;59.864;30.464;2023-06-22T21:17:39;4.38;;;2.45;;
78365;SDS011;67641;59.864;30.464;2023-06-22T21:22:07;3.75;;;1.67;;
78365;SDS011;67641;59.864;30.464;2023-06-22T21:24:34;3.92;;;2.10;;
78365;SDS011;67641;59.864;30.464;2023-06-22T21:27:01;3.70;;;2.13;;
78365;SDS011;67641;59.864;30.464;2023-06-22T21:29:28;3.65;;;1.92;;
78365;SDS011;67641;59.864;30.464;2023-06-22T21:31:55;4.45;;;2.00;;
78365;SDS011;67641;59.864;30.464;2023-06-22T21:34:22;3.95;;;2.00;;
78365;SDS011;67641;59.864;30.464;2023-06-22T21:36:49;4.57;;;1.88;;
78365;SDS011;67641;59.864;30.464;2023-06-22T21:39:19;3.45;;;1.70;;
78365;SDS011;67641;59.864;30.464;2023-06-22T21:44:19;7.38;;;1.77;;
78365;SDS011;67641;59.864;30.464;2023-06-22T21:46:45;4.07;;;1.63;;
78365;SDS011;67641;59.864;30.464;2023-06-22T21:49:12;4.50;;;1.92;;
78365;SDS011;67641;59.864;30.464;2023-06-22T21:51:39;3.47;;;1.85;;
78365;SDS011;67641;59.864;30.464;2023-06-22T21:54:06;3.60;;;1.95;;
78365;SDS011;67641;59.864;30.464;2023-06-22T21:56:33;4.53;;;1.98;;
78365;SDS011;67641;59.864;30.464;2023-06-22T21:59:00;4.30;;;1.73;;
78365;SDS011;67641;59.864;30.464;2023-06-22T22:01:27;3.25;;;1.60;;
78365;SDS011;67641;59.864;30.464;2023-06-22T22:05:19;3.40;;;1.92;;
78365;SDS011;67641;59.864;30.464;2023-06-22T22:07:46;4.65;;;2.53;;
78365;SDS011;67641;59.864;30.464;2023-06-22T22:10:13;4.85;;;2.13;;
78365;SDS011;67641;59.864;30.464;2023-06-22T22:12:40;4.60;;;2.22;;
78365;SDS011;67641;59.864;30.464;2023-06-22T22:15:07;3.40;;;2.28;;
78365;SDS011;67641;59.864;30.464;2023-06-22T22:17:39;4.82;;;2.50;;
78365;SDS011;67641;59.864;30.464;2023-06-22T22:20:11;5.90;;;2.92;;
78365;SDS011;67641;59.864;30.464;2023-06-22T22:22:38;4.82;;;2.30;;
78365;SDS011;67641;59.864;30.464;2023-06-22T22:25:46;4.90;;;1.60;;
78365;SDS011;67641;59.864;30.464;2023-06-22T22:28:13;3.10;;;1.80;;
78365;SDS011;67641;59.864;30.464;2023-06-22T22:30:40;3.65;;;1.95;;
78365;SDS011;67641;59.864;30.464;2023-06-22T22:33:07;4.82;;;1.98;;
78365;SDS011;67641;59.864;30.464;2023-06-22T22:35:34;4.97;;;1.80;;
78365;SDS011;67641;59.864;30.464;2023-06-22T22:38:00;6.28;;;2.22;;
78365;SDS011;67641;59.864;30.464;2023-06-22T22:40:27;3.22;;;1.83;;
78365;SDS011;67641;59.864;30.464;2023-06-22T22:42:54;4.55;;;1.90;;
78365;SDS011;67641;59.864;30.464;2023-06-22T22:48:01;3.95;;;1.90;;
78365;SDS011;67641;59.864;30.464;2023-06-22T22:50:29;3.78;;;1.77;;
78365;SDS011;67641;59.864;30.464;2023-06-22T22:52:55;3.60;;;2.05;;
78365;SDS011;67641;59.864;30.464;2023-06-22T22:55:22;3.45;;;2.00;;
78365;SDS011;67641;59.864;30.464;2023-06-22T22:57:50;6.28;;;1.90;;
78365;SDS011;67641;59.864;30.464;2023-06-22T23:00:20;3.90;;;1.92;;
78365;SDS011;67641;59.864;30.464;2023-06-22T23:02:48;3.88;;;1.70;;
78365;SDS011;67641;59.864;30.464;2023-06-22T23:05:15;4.18;;;2.00;;
78365;SDS011;67641;59.864;30.464;2023-06-22T23:08:58;6.22;;;2.08;;
78365;SDS011;67641;59.864;30.464;2023-06-22T23:11:25;4.80;;;1.92;;
78365;SDS011;67641;59.864;30.464;2023-06-22T23:13:55;4.25;;;1.83;;
78365;SDS011;67641;59.864;30.464;2023-06-22T23:18:52;4.82;;;2.03;;
78365;SDS011;67641;59.864;30.464;2023-06-22T23:21:19;3.22;;;1.77;;
78365;SDS011;67641;59.864;30.464;2023-06-22T23:23:46;5.95;;;1.80;;
78365;SDS011;67641;59.864;30.464;2023-06-22T23:26:12;6.20;;;1.92;;
78365;SDS011;67641;59.864;30.464;2023-06-22T23:30:44;3.38;;;1.65;;
78365;SDS011;67641;59.864;30.464;2023-06-22T23:33:11;4.40;;;1.98;;
78365;SDS011;67641;59.864;30.464;2023-06-22T23:35:37;4.22;;;1.70;;
78365;SDS011;67641;59.864;30.464;2023-06-22T23:38:06;4.63;;;1.73;;
78365;SDS011;67641;59.864;30.464;2023-06-22T23:40:36;6.78;;;1.98;;
78365;SDS011;67641;59.864;30.464;2023-06-22T23:43:05;4.32;;;1.92;;
78365;SDS011;67641;59.864;30.464;2023-06-22T23:45:36;3.25;;;1.83;;
78365;SDS011;67641;59.864;30.464;2023-06-22T23:48:03;5.22;;;1.70;;
78365;SDS011;67641;59.864;30.464;2023-06-22T23:50:29;3.67;;;1.80;;
78365;SDS011;67641;59.864;30.464;2023-06-22T23:54:42;6.63;;;2.25;;
78365;SDS011;67641;59.864;30.464;2023-06-22T23:57:08;4.80;;;2.20;;
78365;SDS011;67641;59.864;30.464;2023-06-22T23:59:34;4.70;;;1.95;;
